sensor_id;sensor_type;location;lat;lon;timestamp;P1;durP1;ratioP1;P2;durP2;ratioP2
21999;SDS011;11164;48.818;2.322;2023-05-10T00:01:22;6.40;;;2.10;;
21999;SDS011;11164;48.818;2.322;2023-05-10T00:03:48;12.63;;;2.03;;
21999;SDS011;11164;48.818;2.322;2023-05-10T00:06:13;8.60;;;1.63;;
21999;SDS011;11164;48.818;2.322;2023-05-10T00:08:38;12.15;;;2.15;;
21999;SDS011;11164;48.818;2.322;2023-05-10T00:11:04;10.77;;;2.38;;
21999;SDS011;11164;48.818;2.322;2023-05-10T00:13:29;24.10;;;4.75;;
21999;SDS011;11164;48.818;2.322;2023-05-10T00:15:56;9.77;;;1.80;;
21999;SDS011;11164;48.818;2.322;2023-05-10T00:18:22;6.43;;;1.65;;
21999;SDS011;11164;48.818;2.322;2023-05-10T00:20:47;8.68;;;1.80;;
21999;SDS011;11164;48.818;2.322;2023-05-10T00:23:13;8.32;;;1.90;;
21999;SDS011;11164;48.818;2.322;2023-05-10T00:25:39;6.65;;;2.17;;
21999;SDS011;11164;48.818;2.322;2023-05-10T00:28:05;5.63;;;1.88;;
21999;SDS011;11164;48.818;2.322;2023-05-10T00:30:31;10.07;;;1.65;;
21999;SDS011;11164;48.818;2.322;2023-05-10T00:32:56;8.88;;;2.10;;
21999;SDS011;11164;48.818;2.322;2023-05-10T00:35:21;6.10;;;1.85;;
21999;SDS011;11164;48.818;2.322;2023-05-10T00:37:47;9.48;;;2.28;;
21999;SDS011;11164;48.818;2.322;2023-05-10T00:40:12;9.85;;;1.63;;
21999;SDS011;11164;48.818;2.322;2023-05-10T00:42:38;8.88;;;2.28;;
21999;SDS011;11164;48.818;2.322;2023-05-10T00:45:04;9.30;;;2.65;;
21999;SDS011;11164;48.818;2.322;2023-05-10T00:47:29;6.93;;;3.80;;
21999;SDS011;11164;48.818;2.322;2023-05-10T00:49:55;6.43;;;1.58;;
21999;SDS011;11164;48.818;2.322;2023-05-10T00:52:21;7.82;;;1.25;;
21999;SDS011;11164;48.818;2.322;2023-05-10T00:54:48;5.80;;;1.08;;
21999;SDS011;11164;48.818;2.322;2023-05-10T00:57:16;7.55;;;1.20;;
21999;SDS011;11164;48.818;2.322;2023-05-10T00:59:42;5.00;;;1.00;;
21999;SDS011;11164;48.818;2.322;2023-05-10T01:02:07;5.40;;;0.85;;
21999;SDS011;11164;48.818;2.322;2023-05-10T01:04:33;9.27;;;0.88;;
21999;SDS011;11164;48.818;2.322;2023-05-10T01:07:00;7.40;;;1.40;;
21999;SDS011;11164;48.818;2.322;2023-05-10T01:09:26;7.03;;;1.67;;
21999;SDS011;11164;48.818;2.322;2023-05-10T01:11:52;8.43;;;1.30;;
21999;SDS011;11164;48.818;2.322;2023-05-10T01:14:19;7.05;;;1.30;;
21999;SDS011;11164;48.818;2.322;2023-05-10T01:16:45;6.47;;;1.25;;
21999;SDS011;11164;48.818;2.322;2023-05-10T01:19:28;3.75;;;1.10;;
21999;SDS011;11164;48.818;2.322;2023-05-10T01:37:58;2.90;;;0.70;;
21999;SDS011;11164;48.818;2.322;2023-05-10T01:40:32;6.32;;;1.05;;
21999;SDS011;11164;48.818;2.322;2023-05-10T01:43:06;3.88;;;0.80;;
21999;SDS011;11164;48.818;2.322;2023-05-10T01:45:41;4.28;;;0.88;;
21999;SDS011;11164;48.818;2.322;2023-05-10T01:48:15;4.15;;;0.95;;
21999;SDS011;11164;48.818;2.322;2023-05-10T01:50:44;4.63;;;0.90;;
21999;SDS011;11164;48.818;2.322;2023-05-10T01:53:12;3.00;;;0.80;;
21999;SDS011;11164;48.818;2.322;2023-05-10T01:55:46;4.57;;;1.10;;
21999;SDS011;11164;48.818;2.322;2023-05-10T01:58:17;4.93;;;1.00;;
21999;SDS011;11164;48.818;2.322;2023-05-10T02:00:47;4.60;;;1.00;;
21999;SDS011;11164;48.818;2.322;2023-05-10T02:03:14;4.55;;;1.10;;
21999;SDS011;11164;48.818;2.322;2023-05-10T02:05:41;4.30;;;0.68;;
21999;SDS011;11164;48.818;2.322;2023-05-10T02:08:10;2.85;;;0.70;;
21999;SDS011;11164;48.818;2.322;2023-05-10T02:10:36;3.58;;;0.50;;
21999;SDS011;11164;48.818;2.322;2023-05-10T02:13:04;5.93;;;0.80;;
21999;SDS011;11164;48.818;2.322;2023-05-10T02:15:31;2.58;;;0.80;;
21999;SDS011;11164;48.818;2.322;2023-05-10T02:17:57;5.53;;;1.02;;
21999;SDS011;11164;48.818;2.322;2023-05-10T02:20:25;3.72;;;0.77;;
21999;SDS011;11164;48.818;2.322;2023-05-10T02:22:52;5.22;;;0.80;;
21999;SDS011;11164;48.818;2.322;2023-05-10T02:25:19;3.47;;;0.80;;
21999;SDS011;11164;48.818;2.322;2023-05-10T02:27:46;6.40;;;0.95;;
21999;SDS011;11164;48.818;2.322;2023-05-10T02:30:15;2.72;;;0.70;;
21999;SDS011;11164;48.818;2.322;2023-05-10T02:32:41;4.18;;;0.80;;
21999;SDS011;11164;48.818;2.322;2023-05-10T02:35:08;2.88;;;0.75;;
21999;SDS011;11164;48.818;2.322;2023-05-10T02:37:36;4.32;;;0.80;;
21999;SDS011;11164;48.818;2.322;2023-05-10T02:40:03;4.22;;;0.75;;
21999;SDS011;11164;48.818;2.322;2023-05-10T02:42:31;3.15;;;0.70;;
21999;SDS011;11164;48.818;2.322;2023-05-10T02:45:01;4.20;;;0.70;;
21999;SDS011;11164;48.818;2.322;2023-05-10T02:47:30;5.25;;;0.90;;
21999;SDS011;11164;48.818;2.322;2023-05-10T02:49:56;4.75;;;0.80;;
21999;SDS011;11164;48.818;2.322;2023-05-10T02:52:23;3.50;;;0.70;;
21999;SDS011;11164;48.818;2.322;2023-05-10T02:54:52;3.88;;;1.10;;
21999;SDS011;11164;48.818;2.322;2023-05-10T02:57:26;6.18;;;0.93;;
21999;SDS011;11164;48.818;2.322;2023-05-10T02:59:54;4.50;;;0.85;;
21999;SDS011;11164;48.818;2.322;2023-05-10T03:02:20;4.07;;;1.00;;
21999;SDS011;11164;48.818;2.322;2023-05-10T03:04:45;3.95;;;1.10;;
21999;SDS011;11164;48.818;2.322;2023-05-10T03:07:11;4.85;;;0.80;;
21999;SDS011;11164;48.818;2.322;2023-05-10T03:09:37;4.72;;;1.00;;
21999;SDS011;11164;48.818;2.322;2023-05-10T03:14:53;4.93;;;0.82;;
21999;SDS011;11164;48.818;2.322;2023-05-10T03:17:23;3.90;;;0.80;;
21999;SDS011;11164;48.818;2.322;2023-05-10T03:19:56;2.95;;;0.75;;
21999;SDS011;11164;48.818;2.322;2023-05-10T03:22:37;3.53;;;0.73;;
21999;SDS011;11164;48.818;2.322;2023-05-10T03:25:05;4.15;;;0.98;;
21999;SDS011;11164;48.818;2.322;2023-05-10T03:27:33;5.28;;;1.00;;
21999;SDS011;11164;48.818;2.322;2023-05-10T03:30:01;7.03;;;1.38;;
21999;SDS011;11164;48.818;2.322;2023-05-10T03:32:28;2.13;;;0.70;;
21999;SDS011;11164;48.818;2.322;2023-05-10T03:34:56;3.90;;;1.00;;
21999;SDS011;11164;48.818;2.322;2023-05-10T03:37:22;3.40;;;0.65;;
21999;SDS011;11164;48.818;2.322;2023-05-10T03:39:47;2.30;;;0.77;;
21999;SDS011;11164;48.818;2.322;2023-05-10T03:42:12;5.80;;;0.80;;
21999;SDS011;11164;48.818;2.322;2023-05-10T03:44:39;5.95;;;0.90;;
21999;SDS011;11164;48.818;2.322;2023-05-10T03:47:04;2.55;;;0.70;;
21999;SDS011;11164;48.818;2.322;2023-05-10T03:49:30;4.95;;;1.10;;
21999;SDS011;11164;48.818;2.322;2023-05-10T03:51:55;2.38;;;0.80;;
21999;SDS011;11164;48.818;2.322;2023-05-10T03:54:20;5.10;;;0.90;;
21999;SDS011;11164;48.818;2.322;2023-05-10T03:56:46;3.20;;;0.80;;
21999;SDS011;11164;48.818;2.322;2023-05-10T03:59:13;4.88;;;0.82;;
21999;SDS011;11164;48.818;2.322;2023-05-10T04:01:38;4.88;;;0.95;;
21999;SDS011;11164;48.818;2.322;2023-05-10T04:04:04;3.97;;;0.98;;
21999;SDS011;11164;48.818;2.322;2023-05-10T04:06:29;3.95;;;0.98;;
21999;SDS011;11164;48.818;2.322;2023-05-10T04:08:55;3.38;;;1.13;;
21999;SDS011;11164;48.818;2.322;2023-05-10T04:11:21;2.10;;;0.80;;
21999;SDS011;11164;48.818;2.322;2023-05-10T04:13:47;6.95;;;1.05;;
21999;SDS011;11164;48.818;2.322;2023-05-10T04:16:12;3.08;;;1.00;;
21999;SDS011;11164;48.818;2.322;2023-05-10T04:18:37;2.40;;;0.60;;
21999;SDS011;11164;48.818;2.322;2023-05-10T04:21:04;4.00;;;1.02;;
21999;SDS011;11164;48.818;2.322;2023-05-10T04:23:29;5.60;;;0.90;;
21999;SDS011;11164;48.818;2.322;2023-05-10T04:26:01;5.80;;;0.80;;
21999;SDS011;11164;48.818;2.322;2023-05-10T04:28:27;3.63;;;0.70;;
21999;SDS011;11164;48.818;2.322;2023-05-10T04:30:52;4.35;;;1.00;;
21999;SDS011;11164;48.818;2.322;2023-05-10T04:33:17;11.60;;;1.05;;
21999;SDS011;11164;48.818;2.322;2023-05-10T04:35:42;3.17;;;0.90;;
21999;SDS011;11164;48.818;2.322;2023-05-10T04:38:09;5.03;;;1.00;;
21999;SDS011;11164;48.818;2.322;2023-05-10T04:40:35;6.47;;;1.10;;
21999;SDS011;11164;48.818;2.322;2023-05-10T04:43:00;3.20;;;0.95;;
21999;SDS011;11164;48.818;2.322;2023-05-10T04:45:26;4.20;;;1.10;;
21999;SDS011;11164;48.818;2.322;2023-05-10T04:47:51;3.40;;;1.45;;
21999;SDS011;11164;48.818;2.322;2023-05-10T04:50:16;4.30;;;1.02;;
21999;SDS011;11164;48.818;2.322;2023-05-10T04:52:42;3.55;;;1.45;;
21999;SDS011;11164;48.818;2.322;2023-05-10T04:55:07;5.07;;;1.95;;
21999;SDS011;11164;48.818;2.322;2023-05-10T04:57:34;4.25;;;1.10;;
21999;SDS011;11164;48.818;2.322;2023-05-10T04:59:59;3.13;;;1.00;;
21999;SDS011;11164;48.818;2.322;2023-05-10T05:02:25;3.63;;;1.13;;
21999;SDS011;11164;48.818;2.322;2023-05-10T05:04:50;3.55;;;1.20;;
21999;SDS011;11164;48.818;2.322;2023-05-10T05:07:16;4.30;;;1.33;;
21999;SDS011;11164;48.818;2.322;2023-05-10T05:09:41;5.63;;;1.33;;
21999;SDS011;11164;48.818;2.322;2023-05-10T05:12:06;2.92;;;1.20;;
21999;SDS011;11164;48.818;2.322;2023-05-10T05:14:32;4.13;;;1.20;;
21999;SDS011;11164;48.818;2.322;2023-05-10T05:16:57;5.18;;;1.30;;
21999;SDS011;11164;48.818;2.322;2023-05-10T05:19:23;2.95;;;0.88;;
21999;SDS011;11164;48.818;2.322;2023-05-10T05:21:48;5.10;;;1.40;;
21999;SDS011;11164;48.818;2.322;2023-05-10T05:24:14;4.30;;;1.23;;
21999;SDS011;11164;48.818;2.322;2023-05-10T05:26:40;2.85;;;1.20;;
21999;SDS011;11164;48.818;2.322;2023-05-10T05:29:05;4.53;;;1.23;;
21999;SDS011;11164;48.818;2.322;2023-05-10T05:31:30;6.10;;;1.20;;
21999;SDS011;11164;48.818;2.322;2023-05-10T05:33:56;6.38;;;1.27;;
21999;SDS011;11164;48.818;2.322;2023-05-10T05:36:21;6.13;;;1.30;;
21999;SDS011;11164;48.818;2.322;2023-05-10T05:38:47;4.75;;;1.20;;
21999;SDS011;11164;48.818;2.322;2023-05-10T05:41:12;5.47;;;1.73;;
21999;SDS011;11164;48.818;2.322;2023-05-10T05:43:37;4.72;;;1.50;;
21999;SDS011;11164;48.818;2.322;2023-05-10T05:46:03;3.45;;;1.33;;
21999;SDS011;11164;48.818;2.322;2023-05-10T05:48:29;8.65;;;1.75;;
21999;SDS011;11164;48.818;2.322;2023-05-10T05:50:55;5.22;;;1.60;;
21999;SDS011;11164;48.818;2.322;2023-05-10T05:53:24;7.10;;;1.77;;
21999;SDS011;11164;48.818;2.322;2023-05-10T05:55:53;6.00;;;1.83;;
21999;SDS011;11164;48.818;2.322;2023-05-10T05:58:19;6.00;;;1.70;;
21999;SDS011;11164;48.818;2.322;2023-05-10T06:00:45;4.63;;;1.40;;
21999;SDS011;11164;48.818;2.322;2023-05-10T06:03:10;5.38;;;1.42;;
21999;SDS011;11164;48.818;2.322;2023-05-10T06:05:35;8.70;;;1.63;;
21999;SDS011;11164;48.818;2.322;2023-05-10T06:08:01;8.60;;;2.08;;
21999;SDS011;11164;48.818;2.322;2023-05-10T06:10:26;6.45;;;1.95;;
21999;SDS011;11164;48.818;2.322;2023-05-10T06:12:51;5.90;;;2.08;;
21999;SDS011;11164;48.818;2.322;2023-05-10T06:15:18;5.85;;;2.10;;
21999;SDS011;11164;48.818;2.322;2023-05-10T06:17:43;8.25;;;2.35;;
21999;SDS011;11164;48.818;2.322;2023-05-10T06:20:09;5.15;;;1.70;;
21999;SDS011;11164;48.818;2.322;2023-05-10T06:22:35;7.75;;;1.67;;
21999;SDS011;11164;48.818;2.322;2023-05-10T06:25:00;6.90;;;2.25;;
21999;SDS011;11164;48.818;2.322;2023-05-10T06:27:26;5.90;;;2.03;;
21999;SDS011;11164;48.818;2.322;2023-05-10T06:29:52;8.10;;;2.10;;
21999;SDS011;11164;48.818;2.322;2023-05-10T06:32:17;7.28;;;2.25;;
21999;SDS011;11164;48.818;2.322;2023-05-10T06:34:43;5.82;;;2.45;;
21999;SDS011;11164;48.818;2.322;2023-05-10T06:37:09;8.73;;;2.53;;
21999;SDS011;11164;48.818;2.322;2023-05-10T06:39:35;6.53;;;2.20;;
21999;SDS011;11164;48.818;2.322;2023-05-10T06:42:00;12.40;;;2.40;;
21999;SDS011;11164;48.818;2.322;2023-05-10T06:44:26;8.98;;;2.70;;
21999;SDS011;11164;48.818;2.322;2023-05-10T06:46:51;7.97;;;2.30;;
21999;SDS011;11164;48.818;2.322;2023-05-10T06:49:18;6.55;;;2.20;;
21999;SDS011;11164;48.818;2.322;2023-05-10T06:51:43;6.70;;;2.45;;
21999;SDS011;11164;48.818;2.322;2023-05-10T06:54:10;8.15;;;2.47;;
21999;SDS011;11164;48.818;2.322;2023-05-10T06:56:35;7.68;;;2.42;;
21999;SDS011;11164;48.818;2.322;2023-05-10T06:59:00;11.02;;;2.75;;
21999;SDS011;11164;48.818;2.322;2023-05-10T07:01:25;7.82;;;2.75;;
21999;SDS011;11164;48.818;2.322;2023-05-10T07:03:51;7.72;;;2.50;;
21999;SDS011;11164;48.818;2.322;2023-05-10T07:06:17;5.05;;;2.30;;
21999;SDS011;11164;48.818;2.322;2023-05-10T07:08:42;4.90;;;1.73;;
21999;SDS011;11164;48.818;2.322;2023-05-10T07:11:07;5.45;;;2.03;;
21999;SDS011;11164;48.818;2.322;2023-05-10T07:13:33;9.02;;;2.40;;
21999;SDS011;11164;48.818;2.322;2023-05-10T07:15:59;7.38;;;2.47;;
21999;SDS011;11164;48.818;2.322;2023-05-10T07:18:25;6.10;;;2.00;;
21999;SDS011;11164;48.818;2.322;2023-05-10T07:20:51;5.75;;;2.00;;
21999;SDS011;11164;48.818;2.322;2023-05-10T07:23:17;4.85;;;1.88;;
21999;SDS011;11164;48.818;2.322;2023-05-10T07:25:46;6.45;;;1.90;;
21999;SDS011;11164;48.818;2.322;2023-05-10T07:28:13;5.88;;;1.73;;
21999;SDS011;11164;48.818;2.322;2023-05-10T07:30:39;4.72;;;1.70;;
21999;SDS011;11164;48.818;2.322;2023-05-10T07:33:04;4.90;;;2.05;;
21999;SDS011;11164;48.818;2.322;2023-05-10T07:35:30;6.55;;;2.08;;
21999;SDS011;11164;48.818;2.322;2023-05-10T07:37:55;3.92;;;1.67;;
21999;SDS011;11164;48.818;2.322;2023-05-10T07:40:21;4.38;;;1.80;;
21999;SDS011;11164;48.818;2.322;2023-05-10T07:42:46;3.40;;;1.52;;
21999;SDS011;11164;48.818;2.322;2023-05-10T07:45:12;4.00;;;1.50;;
21999;SDS011;11164;48.818;2.322;2023-05-10T07:47:37;3.50;;;1.48;;
21999;SDS011;11164;48.818;2.322;2023-05-10T07:50:02;5.28;;;1.70;;
21999;SDS011;11164;48.818;2.322;2023-05-10T07:52:28;3.40;;;1.50;;
21999;SDS011;11164;48.818;2.322;2023-05-10T07:54:53;4.82;;;1.52;;
21999;SDS011;11164;48.818;2.322;2023-05-10T07:57:19;5.63;;;1.77;;
21999;SDS011;11164;48.818;2.322;2023-05-10T07:59:44;7.20;;;2.35;;
21999;SDS011;11164;48.818;2.322;2023-05-10T08:02:10;5.72;;;2.40;;
21999;SDS011;11164;48.818;2.322;2023-05-10T08:04:35;6.90;;;2.45;;
21999;SDS011;11164;48.818;2.322;2023-05-10T08:07:01;6.22;;;2.75;;
21999;SDS011;11164;48.818;2.322;2023-05-10T08:09:26;6.10;;;2.70;;
21999;SDS011;11164;48.818;2.322;2023-05-10T08:11:51;6.22;;;3.00;;
21999;SDS011;11164;48.818;2.322;2023-05-10T08:14:17;5.47;;;2.60;;
21999;SDS011;11164;48.818;2.322;2023-05-10T08:16:42;5.25;;;2.50;;
21999;SDS011;11164;48.818;2.322;2023-05-10T08:19:07;4.72;;;2.33;;
21999;SDS011;11164;48.818;2.322;2023-05-10T08:21:33;6.70;;;2.28;;
21999;SDS011;11164;48.818;2.322;2023-05-10T08:23:58;6.20;;;2.88;;
21999;SDS011;11164;48.818;2.322;2023-05-10T08:26:23;6.10;;;2.92;;
21999;SDS011;11164;48.818;2.322;2023-05-10T08:28:49;6.72;;;2.33;;
21999;SDS011;11164;48.818;2.322;2023-05-10T08:31:14;5.65;;;2.78;;
21999;SDS011;11164;48.818;2.322;2023-05-10T08:33:40;5.00;;;1.83;;
21999;SDS011;11164;48.818;2.322;2023-05-10T08:36:05;8.25;;;2.40;;
21999;SDS011;11164;48.818;2.322;2023-05-10T08:38:31;3.95;;;1.88;;
21999;SDS011;11164;48.818;2.322;2023-05-10T08:40:56;7.47;;;2.60;;
21999;SDS011;11164;48.818;2.322;2023-05-10T08:43:23;6.55;;;2.28;;
21999;SDS011;11164;48.818;2.322;2023-05-10T08:45:53;5.35;;;2.38;;
21999;SDS011;11164;48.818;2.322;2023-05-10T08:48:19;6.40;;;2.30;;
21999;SDS011;11164;48.818;2.322;2023-05-10T08:50:48;6.78;;;2.67;;
21999;SDS011;11164;48.818;2.322;2023-05-10T08:53:15;6.90;;;2.70;;
21999;SDS011;11164;48.818;2.322;2023-05-10T08:55:41;10.05;;;2.97;;
21999;SDS011;11164;48.818;2.322;2023-05-10T08:58:08;7.50;;;2.47;;
21999;SDS011;11164;48.818;2.322;2023-05-10T09:00:34;9.15;;;3.00;;
21999;SDS011;11164;48.818;2.322;2023-05-10T09:03:02;11.02;;;3.42;;
21999;SDS011;11164;48.818;2.322;2023-05-10T09:05:28;9.38;;;3.03;;
21999;SDS011;11164;48.818;2.322;2023-05-10T09:07:54;9.15;;;3.03;;
21999;SDS011;11164;48.818;2.322;2023-05-10T09:10:20;12.45;;;4.07;;
21999;SDS011;11164;48.818;2.322;2023-05-10T09:12:45;11.27;;;3.58;;
21999;SDS011;11164;48.818;2.322;2023-05-10T09:15:14;9.93;;;3.50;;
21999;SDS011;11164;48.818;2.322;2023-05-10T09:17:40;13.75;;;4.25;;
21999;SDS011;11164;48.818;2.322;2023-05-10T09:20:07;11.48;;;3.90;;
21999;SDS011;11164;48.818;2.322;2023-05-10T09:22:33;12.82;;;3.83;;
21999;SDS011;11164;48.818;2.322;2023-05-10T09:27:34;12.35;;;3.92;;
21999;SDS011;11164;48.818;2.322;2023-05-10T09:30:00;12.95;;;3.40;;
21999;SDS011;11164;48.818;2.322;2023-05-10T09:32:39;13.18;;;3.40;;
21999;SDS011;11164;48.818;2.322;2023-05-10T09:35:15;20.42;;;4.38;;
21999;SDS011;11164;48.818;2.322;2023-05-10T09:37:45;19.48;;;4.47;;
21999;SDS011;11164;48.818;2.322;2023-05-10T09:40:13;11.95;;;3.78;;
21999;SDS011;11164;48.818;2.322;2023-05-10T09:42:41;17.27;;;4.05;;
21999;SDS011;11164;48.818;2.322;2023-05-10T09:45:08;16.45;;;3.80;;
21999;SDS011;11164;48.818;2.322;2023-05-10T09:47:34;16.40;;;3.80;;
21999;SDS011;11164;48.818;2.322;2023-05-10T09:50:00;11.98;;;3.85;;
21999;SDS011;11164;48.818;2.322;2023-05-10T09:52:30;20.08;;;3.63;;
21999;SDS011;11164;48.818;2.322;2023-05-10T09:55:10;12.05;;;3.50;;
21999;SDS011;11164;48.818;2.322;2023-05-10T09:57:35;18.10;;;4.28;;
21999;SDS011;11164;48.818;2.322;2023-05-10T10:00:01;17.65;;;4.10;;
21999;SDS011;11164;48.818;2.322;2023-05-10T10:02:30;14.30;;;3.92;;
21999;SDS011;11164;48.818;2.322;2023-05-10T10:04:56;16.15;;;4.70;;
21999;SDS011;11164;48.818;2.322;2023-05-10T10:07:22;17.77;;;5.15;;
21999;SDS011;11164;48.818;2.322;2023-05-10T10:09:50;15.75;;;4.45;;
21999;SDS011;11164;48.818;2.322;2023-05-10T10:12:16;17.98;;;4.03;;
21999;SDS011;11164;48.818;2.322;2023-05-10T10:14:42;21.52;;;4.70;;
21999;SDS011;11164;48.818;2.322;2023-05-10T10:17:08;13.32;;;3.70;;
21999;SDS011;11164;48.818;2.322;2023-05-10T10:19:34;11.48;;;4.25;;
21999;SDS011;11164;48.818;2.322;2023-05-10T10:22:00;15.18;;;4.50;;
21999;SDS011;11164;48.818;2.322;2023-05-10T10:24:25;14.88;;;4.80;;
21999;SDS011;11164;48.818;2.322;2023-05-10T10:26:52;16.45;;;4.47;;
21999;SDS011;11164;48.818;2.322;2023-05-10T10:29:26;20.70;;;4.28;;
21999;SDS011;11164;48.818;2.322;2023-05-10T10:34:33;21.58;;;4.53;;
21999;SDS011;11164;48.818;2.322;2023-05-10T10:37:04;16.95;;;5.40;;
21999;SDS011;11164;48.818;2.322;2023-05-10T10:39:30;16.88;;;5.28;;
21999;SDS011;11164;48.818;2.322;2023-05-10T10:41:56;13.40;;;4.22;;
21999;SDS011;11164;48.818;2.322;2023-05-10T10:49:48;17.27;;;4.68;;
21999;SDS011;11164;48.818;2.322;2023-05-10T10:52:32;11.10;;;4.20;;
21999;SDS011;11164;48.818;2.322;2023-05-10T10:57:26;12.98;;;4.40;;
21999;SDS011;11164;48.818;2.322;2023-05-10T11:02:50;12.18;;;4.20;;
21999;SDS011;11164;48.818;2.322;2023-05-10T11:05:23;14.27;;;4.65;;
21999;SDS011;11164;48.818;2.322;2023-05-10T11:07:53;17.70;;;4.40;;
21999;SDS011;11164;48.818;2.322;2023-05-10T11:10:20;13.15;;;4.00;;
21999;SDS011;11164;48.818;2.322;2023-05-10T11:13:05;15.70;;;4.28;;
21999;SDS011;11164;48.818;2.322;2023-05-10T11:15:33;12.50;;;4.03;;
21999;SDS011;11164;48.818;2.322;2023-05-10T11:18:01;15.32;;;4.13;;
21999;SDS011;11164;48.818;2.322;2023-05-10T11:20:42;11.63;;;3.50;;
21999;SDS011;11164;48.818;2.322;2023-05-10T11:23:13;11.07;;;3.83;;
21999;SDS011;11164;48.818;2.322;2023-05-10T11:25:43;13.98;;;3.60;;
21999;SDS011;11164;48.818;2.322;2023-05-10T11:28:09;14.75;;;3.88;;
21999;SDS011;11164;48.818;2.322;2023-05-10T11:30:35;14.55;;;3.80;;
21999;SDS011;11164;48.818;2.322;2023-05-10T11:33:03;12.93;;;3.83;;
21999;SDS011;11164;48.818;2.322;2023-05-10T11:35:28;11.20;;;3.72;;
21999;SDS011;11164;48.818;2.322;2023-05-10T11:37:53;12.75;;;3.38;;
21999;SDS011;11164;48.818;2.322;2023-05-10T11:40:21;11.93;;;3.33;;
21999;SDS011;11164;48.818;2.322;2023-05-10T11:42:48;10.90;;;2.97;;
21999;SDS011;11164;48.818;2.322;2023-05-10T11:45:14;13.52;;;3.30;;
21999;SDS011;11164;48.818;2.322;2023-05-10T11:47:39;9.50;;;2.70;;
21999;SDS011;11164;48.818;2.322;2023-05-10T11:50:07;13.63;;;3.78;;
21999;SDS011;11164;48.818;2.322;2023-05-10T11:52:36;11.65;;;3.20;;
21999;SDS011;11164;48.818;2.322;2023-05-10T11:55:02;12.10;;;3.50;;
21999;SDS011;11164;48.818;2.322;2023-05-10T11:57:28;12.00;;;3.20;;
21999;SDS011;11164;48.818;2.322;2023-05-10T11:59:53;9.05;;;3.55;;
21999;SDS011;11164;48.818;2.322;2023-05-10T12:02:22;14.20;;;3.60;;
21999;SDS011;11164;48.818;2.322;2023-05-10T12:04:48;11.98;;;3.42;;
21999;SDS011;11164;48.818;2.322;2023-05-10T12:07:14;12.77;;;3.40;;
21999;SDS011;11164;48.818;2.322;2023-05-10T12:10:02;11.82;;;3.92;;
21999;SDS011;11164;48.818;2.322;2023-05-10T12:12:35;8.55;;;3.20;;
21999;SDS011;11164;48.818;2.322;2023-05-10T12:15:02;9.95;;;3.35;;
21999;SDS011;11164;48.818;2.322;2023-05-10T12:17:29;7.95;;;3.17;;
21999;SDS011;11164;48.818;2.322;2023-05-10T12:19:58;10.55;;;3.63;;
21999;SDS011;11164;48.818;2.322;2023-05-10T12:22:24;14.27;;;3.95;;
21999;SDS011;11164;48.818;2.322;2023-05-10T12:24:50;11.10;;;3.55;;
21999;SDS011;11164;48.818;2.322;2023-05-10T12:27:15;11.27;;;3.38;;
21999;SDS011;11164;48.818;2.322;2023-05-10T12:29:41;10.10;;;4.13;;
21999;SDS011;11164;48.818;2.322;2023-05-10T12:32:09;10.88;;;3.30;;
21999;SDS011;11164;48.818;2.322;2023-05-10T12:34:35;8.50;;;2.88;;
21999;SDS011;11164;48.818;2.322;2023-05-10T12:37:02;7.50;;;2.78;;
21999;SDS011;11164;48.818;2.322;2023-05-10T12:39:41;7.47;;;2.40;;
21999;SDS011;11164;48.818;2.322;2023-05-10T12:42:08;9.80;;;2.78;;
21999;SDS011;11164;48.818;2.322;2023-05-10T12:44:34;9.02;;;3.38;;
21999;SDS011;11164;48.818;2.322;2023-05-10T12:46:59;11.10;;;3.38;;
21999;SDS011;11164;48.818;2.322;2023-05-10T12:49:25;10.60;;;3.65;;
21999;SDS011;11164;48.818;2.322;2023-05-10T12:51:50;10.20;;;3.38;;
21999;SDS011;11164;48.818;2.322;2023-05-10T12:54:15;10.10;;;2.92;;
21999;SDS011;11164;48.818;2.322;2023-05-10T12:56:40;9.10;;;3.38;;
21999;SDS011;11164;48.818;2.322;2023-05-10T12:59:07;9.68;;;2.95;;
21999;SDS011;11164;48.818;2.322;2023-05-10T13:01:33;10.75;;;3.15;;
21999;SDS011;11164;48.818;2.322;2023-05-10T13:03:58;10.07;;;2.95;;
21999;SDS011;11164;48.818;2.322;2023-05-10T13:06:25;7.53;;;2.40;;
21999;SDS011;11164;48.818;2.322;2023-05-10T13:08:50;9.35;;;3.10;;
21999;SDS011;11164;48.818;2.322;2023-05-10T13:11:16;10.63;;;3.40;;
21999;SDS011;11164;48.818;2.322;2023-05-10T13:13:42;10.02;;;3.15;;
21999;SDS011;11164;48.818;2.322;2023-05-10T13:16:09;8.68;;;3.10;;
21999;SDS011;11164;48.818;2.322;2023-05-10T13:18:35;9.07;;;2.90;;
21999;SDS011;11164;48.818;2.322;2023-05-10T13:21:00;9.43;;;2.63;;
21999;SDS011;11164;48.818;2.322;2023-05-10T13:23:26;7.88;;;2.67;;
21999;SDS011;11164;48.818;2.322;2023-05-10T13:25:51;8.25;;;2.47;;
21999;SDS011;11164;48.818;2.322;2023-05-10T13:28:17;10.55;;;2.40;;
21999;SDS011;11164;48.818;2.322;2023-05-10T13:30:42;8.20;;;2.83;;
21999;SDS011;11164;48.818;2.322;2023-05-10T13:33:07;7.60;;;2.45;;
21999;SDS011;11164;48.818;2.322;2023-05-10T13:35:32;8.55;;;2.38;;
21999;SDS011;11164;48.818;2.322;2023-05-10T13:37:58;7.20;;;2.50;;
21999;SDS011;11164;48.818;2.322;2023-05-10T13:40:23;8.35;;;2.78;;
21999;SDS011;11164;48.818;2.322;2023-05-10T13:42:48;10.52;;;2.90;;
21999;SDS011;11164;48.818;2.322;2023-05-10T13:45:14;10.35;;;2.63;;
21999;SDS011;11164;48.818;2.322;2023-05-10T13:47:39;8.68;;;2.60;;
21999;SDS011;11164;48.818;2.322;2023-05-10T13:50:06;8.73;;;2.72;;
21999;SDS011;11164;48.818;2.322;2023-05-10T13:52:31;8.77;;;2.70;;
21999;SDS011;11164;48.818;2.322;2023-05-10T13:54:57;9.48;;;2.63;;
21999;SDS011;11164;48.818;2.322;2023-05-10T13:57:22;7.20;;;2.58;;
21999;SDS011;11164;48.818;2.322;2023-05-10T13:59:48;7.25;;;2.67;;
21999;SDS011;11164;48.818;2.322;2023-05-10T14:02:14;5.43;;;2.30;;
21999;SDS011;11164;48.818;2.322;2023-05-10T14:04:39;8.77;;;2.28;;
21999;SDS011;11164;48.818;2.322;2023-05-10T14:07:06;10.57;;;2.83;;
21999;SDS011;11164;48.818;2.322;2023-05-10T14:09:32;9.63;;;2.60;;
21999;SDS011;11164;48.818;2.322;2023-05-10T14:11:57;9.52;;;2.80;;
21999;SDS011;11164;48.818;2.322;2023-05-10T14:14:22;10.30;;;2.53;;
21999;SDS011;11164;48.818;2.322;2023-05-10T14:16:48;8.82;;;3.00;;
21999;SDS011;11164;48.818;2.322;2023-05-10T14:19:13;15.40;;;3.47;;
21999;SDS011;11164;48.818;2.322;2023-05-10T14:21:38;9.23;;;2.67;;
21999;SDS011;11164;48.818;2.322;2023-05-10T14:24:04;8.93;;;2.72;;
21999;SDS011;11164;48.818;2.322;2023-05-10T14:26:29;5.50;;;1.75;;
21999;SDS011;11164;48.818;2.322;2023-05-10T14:28:55;7.72;;;2.15;;
21999;SDS011;11164;48.818;2.322;2023-05-10T14:31:21;6.40;;;1.70;;
21999;SDS011;11164;48.818;2.322;2023-05-10T14:33:48;9.27;;;2.35;;
21999;SDS011;11164;48.818;2.322;2023-05-10T14:36:13;9.65;;;3.28;;
21999;SDS011;11164;48.818;2.322;2023-05-10T14:38:39;9.85;;;2.92;;
21999;SDS011;11164;48.818;2.322;2023-05-10T14:41:05;6.20;;;1.67;;
21999;SDS011;11164;48.818;2.322;2023-05-10T14:43:30;7.10;;;1.83;;
21999;SDS011;11164;48.818;2.322;2023-05-10T14:45:56;8.43;;;2.20;;
21999;SDS011;11164;48.818;2.322;2023-05-10T14:48:21;6.57;;;1.85;;
21999;SDS011;11164;48.818;2.322;2023-05-10T14:50:47;6.80;;;2.17;;
21999;SDS011;11164;48.818;2.322;2023-05-10T14:53:12;5.88;;;1.65;;
21999;SDS011;11164;48.818;2.322;2023-05-10T14:55:37;6.55;;;1.60;;
21999;SDS011;11164;48.818;2.322;2023-05-10T14:58:04;8.13;;;2.03;;
21999;SDS011;11164;48.818;2.322;2023-05-10T15:00:29;6.90;;;2.00;;
21999;SDS011;11164;48.818;2.322;2023-05-10T15:02:55;6.45;;;2.00;;
21999;SDS011;11164;48.818;2.322;2023-05-10T15:05:21;7.72;;;2.40;;
21999;SDS011;11164;48.818;2.322;2023-05-10T15:07:47;7.03;;;2.15;;
21999;SDS011;11164;48.818;2.322;2023-05-10T15:10:12;6.43;;;2.00;;
21999;SDS011;11164;48.818;2.322;2023-05-10T15:12:38;9.45;;;2.90;;
21999;SDS011;11164;48.818;2.322;2023-05-10T15:15:04;9.35;;;2.70;;